sensor_id;sensor_type;location;lat;lon;timestamp;temperature;humidity
6948;DHT22;3513;47.664;9.162;2023-08-30T00:02:14;13.00;99.90
6948;DHT22;3513;47.664;9.162;2023-08-30T00:04:41;13.00;99.90
6948;DHT22;3513;47.664;9.162;2023-08-30T00:07:07;13.00;99.90
6948;DHT22;3513;47.664;9.162;2023-08-30T00:09:33;13.00;99.90
6948;DHT22;3513;47.664;9.162;2023-08-30T00:11:58;13.10;99.90
6948;DHT22;3513;47.664;9.162;2023-08-30T00:14:24;13.00;99.90
6948;DHT22;3513;47.664;9.162;2023-08-30T00:16:49;13.00;99.90
6948;DHT22;3513;47.664;9.162;2023-08-30T00:19:15;13.00;99.90
6948;DHT22;3513;47.664;9.162;2023-08-30T00:21:41;13.00;99.90
6948;DHT22;3513;47.664;9.162;2023-08-30T00:24:08;12.90;99.90
6948;DHT22;3513;47.664;9.162;2023-08-30T00:26:33;12.90;99.90
6948;DHT22;3513;47.664;9.162;2023-08-30T00:28:59;12.90;99.90
6948;DHT22;3513;47.664;9.162;2023-08-30T00:31:24;12.80;99.90
6948;DHT22;3513;47.664;9.162;2023-08-30T00:33:50;12.80;99.90
6948;DHT22;3513;47.664;9.162;2023-08-30T00:36:15;12.80;99.90
6948;DHT22;3513;47.664;9.162;2023-08-30T00:38:44;12.80;99.90
6948;DHT22;3513;47.664;9.162;2023-08-30T00:41:09;12.90;99.90
6948;DHT22;3513;47.664;9.162;2023-08-30T00:43:35;12.90;99.90
6948;DHT22;3513;47.664;9.162;2023-08-30T00:46:00;12.90;99.90
6948;DHT22;3513;47.664;9.162;2023-08-30T00:48:26;12.90;99.90
6948;DHT22;3513;47.664;9.162;2023-08-30T00:50:52;12.90;99.90
6948;DHT22;3513;47.664;9.162;2023-08-30T00:53:18;12.90;99.90
6948;DHT22;3513;47.664;9.162;2023-08-30T00:55:44;12.90;99.90
6948;DHT22;3513;47.664;9.162;2023-08-30T00:58:10;12.90;99.90
6948;DHT22;3513;47.664;9.162;2023-08-30T01:00:36;13.00;99.90
6948;DHT22;3513;47.664;9.162;2023-08-30T01:03:03;13.00;99.90
6948;DHT22;3513;47.664;9.162;2023-08-30T01:05:30;13.00;99.90
6948;DHT22;3513;47.664;9.162;2023-08-30T01:07:56;13.00;99.90
6948;DHT22;3513;47.664;9.162;2023-08-30T01:10:27;13.00;99.90
6948;DHT22;3513;47.664;9.162;2023-08-30T01:13:05;13.00;99.90
6948;DHT22;3513;47.664;9.162;2023-08-30T01:15:32;13.00;99.90
6948;DHT22;3513;47.664;9.162;2023-08-30T01:18:00;13.00;99.90
6948;DHT22;3513;47.664;9.162;2023-08-30T01:20:27;13.00;99.90
6948;DHT22;3513;47.664;9.162;2023-08-30T01:23:06;12.90;99.90
6948;DHT22;3513;47.664;9.162;2023-08-30T01:25:39;12.90;99.90
6948;DHT22;3513;47.664;9.162;2023-08-30T01:28:07;13.00;99.90
6948;DHT22;3513;47.664;9.162;2023-08-30T01:30:34;12.90;99.90
6948;DHT22;3513;47.664;9.162;2023-08-30T01:33:03;12.90;99.90
6948;DHT22;3513;47.664;9.162;2023-08-30T01:35:31;12.90;99.90
6948;DHT22;3513;47.664;9.162;2023-08-30T01:37:59;12.90;99.90
6948;DHT22;3513;47.664;9.162;2023-08-30T01:40:27;13.00;99.90
6948;DHT22;3513;47.664;9.162;2023-08-30T01:42:54;13.00;99.90
6948;DHT22;3513;47.664;9.162;2023-08-30T01:45:21;13.00;99.90
6948;DHT22;3513;47.664;9.162;2023-08-30T01:47:48;13.00;99.90
6948;DHT22;3513;47.664;9.162;2023-08-30T01:50:14;13.00;99.90
6948;DHT22;3513;47.664;9.162;2023-08-30T01:52:40;13.00;99.90
6948;DHT22;3513;47.664;9.162;2023-08-30T01:55:08;13.00;99.90
6948;DHT22;3513;47.664;9.162;2023-08-30T01:57:34;13.00;99.90
6948;DHT22;3513;47.664;9.162;2023-08-30T01:59:59;13.00;99.90
6948;DHT22;3513;47.664;9.162;2023-08-30T02:02:29;13.00;99.90
6948;DHT22;3513;47.664;9.162;2023-08-30T02:04:55;12.90;99.90
6948;DHT22;3513;47.664;9.162;2023-08-30T02:07:46;12.90;99.90
6948;DHT22;3513;47.664;9.162;2023-08-30T02:10:11;12.90;99.90
6948;DHT22;3513;47.664;9.162;2023-08-30T02:12:48;13.00;99.90
6948;DHT22;3513;47.664;9.162;2023-08-30T02:15:16;13.00;99.90
6948;DHT22;3513;47.664;9.162;2023-08-30T02:17:42;13.00;99.90
6948;DHT22;3513;47.664;9.162;2023-08-30T02:20:09;13.00;99.90
6948;DHT22;3513;47.664;9.162;2023-08-30T02:22:35;13.00;99.90
6948;DHT22;3513;47.664;9.162;2023-08-30T02:25:01;13.00;99.90
6948;DHT22;3513;47.664;9.162;2023-08-30T02:27:33;13.00;99.90
6948;DHT22;3513;47.664;9.162;2023-08-30T02:29:58;13.00;99.90
6948;DHT22;3513;47.664;9.162;2023-08-30T02:32:24;13.00;99.90
6948;DHT22;3513;47.664;9.162;2023-08-30T02:34:51;13.00;99.90
6948;DHT22;3513;47.664;9.162;2023-08-30T02:37:18;13.00;99.90
6948;DHT22;3513;47.664;9.162;2023-08-30T02:39:44;13.00;99.90
6948;DHT22;3513;47.664;9.162;2023-08-30T02:42:09;12.90;99.90
6948;DHT22;3513;47.664;9.162;2023-08-30T02:44:35;12.90;99.90
6948;DHT22;3513;47.664;9.162;2023-08-30T02:47:01;12.90;99.90
6948;DHT22;3513;47.664;9.162;2023-08-30T02:49:26;12.90;99.90
6948;DHT22;3513;47.664;9.162;2023-08-30T02:51:52;12.90;99.90
6948;DHT22;3513;47.664;9.162;2023-08-30T02:54:17;12.90;99.90
6948;DHT22;3513;47.664;9.162;2023-08-30T02:56:44;12.90;99.90
6948;DHT22;3513;47.664;9.162;2023-08-30T02:59:10;12.90;99.90
6948;DHT22;3513;47.664;9.162;2023-08-30T03:01:36;12.90;99.90
6948;DHT22;3513;47.664;9.162;2023-08-30T03:04:02;12.80;99.90
6948;DHT22;3513;47.664;9.162;2023-08-30T03:06:29;12.80;99.90
6948;DHT22;3513;47.664;9.162;2023-08-30T03:08:55;12.80;99.90
6948;DHT22;3513;47.664;9.162;2023-08-30T03:11:20;12.80;99.90
6948;DHT22;3513;47.664;9.162;2023-08-30T03:13:46;12.80;99.90
6948;DHT22;3513;47.664;9.162;2023-08-30T03:16:14;12.80;99.90
6948;DHT22;3513;47.664;9.162;2023-08-30T03:18:41;12.80;99.90
6948;DHT22;3513;47.664;9.162;2023-08-30T03:21:07;12.80;99.90
6948;DHT22;3513;47.664;9.162;2023-08-30T03:23:33;12.70;99.90
6948;DHT22;3513;47.664;9.162;2023-08-30T03:26:13;12.70;99.90
6948;DHT22;3513;47.664;9.162;2023-08-30T03:28:39;12.70;99.90
6948;DHT22;3513;47.664;9.162;2023-08-30T03:31:21;12.60;99.90
6948;DHT22;3513;47.664;9.162;2023-08-30T03:33:47;12.60;99.90
6948;DHT22;3513;47.664;9.162;2023-08-30T03:36:15;12.60;99.90
6948;DHT22;3513;47.664;9.162;2023-08-30T03:38:41;12.70;99.90
6948;DHT22;3513;47.664;9.162;2023-08-30T03:41:07;12.70;99.90
6948;DHT22;3513;47.664;9.162;2023-08-30T03:43:33;12.70;99.90
6948;DHT22;3513;47.664;9.162;2023-08-30T03:46:02;12.70;99.90
6948;DHT22;3513;47.664;9.162;2023-08-30T03:48:31;12.70;99.90
6948;DHT22;3513;47.664;9.162;2023-08-30T03:50:57;12.80;99.90
6948;DHT22;3513;47.664;9.162;2023-08-30T03:53:23;12.80;99.90
6948;DHT22;3513;47.664;9.162;2023-08-30T03:55:49;12.80;99.90
6948;DHT22;3513;47.664;9.162;2023-08-30T03:58:15;12.80;99.90
6948;DHT22;3513;47.664;9.162;2023-08-30T04:00:41;12.90;99.90
6948;DHT22;3513;47.664;9.162;2023-08-30T04:03:08;12.90;99.90
6948;DHT22;3513;47.664;9.162;2023-08-30T04:05:35;12.80;99.90
6948;DHT22;3513;47.664;9.162;2023-08-30T04:08:05;12.80;99.90
6948;DHT22;3513;47.664;9.162;2023-08-30T04:10:35;12.70;99.90
6948;DHT22;3513;47.664;9.162;2023-08-30T04:13:01;12.70;99.90
6948;DHT22;3513;47.664;9.162;2023-08-30T04:15:26;12.70;99.90
6948;DHT22;3513;47.664;9.162;2023-08-30T04:17:52;12.70;99.90
6948;DHT22;3513;47.664;9.162;2023-08-30T04:20:17;12.70;99.90
6948;DHT22;3513;47.664;9.162;2023-08-30T04:22:43;12.70;99.90
6948;DHT22;3513;47.664;9.162;2023-08-30T04:25:09;12.70;99.90
6948;DHT22;3513;47.664;9.162;2023-08-30T04:27:35;12.70;99.90
6948;DHT22;3513;47.664;9.162;2023-08-30T04:30:01;12.70;99.90
6948;DHT22;3513;47.664;9.162;2023-08-30T04:32:27;12.70;99.90
6948;DHT22;3513;47.664;9.162;2023-08-30T04:34:52;12.70;99.90
6948;DHT22;3513;47.664;9.162;2023-08-30T04:37:18;12.70;99.90
6948;DHT22;3513;47.664;9.162;2023-08-30T04:39:47;12.70;99.90
6948;DHT22;3513;47.664;9.162;2023-08-30T04:42:13;12.80;99.90
6948;DHT22;3513;47.664;9.162;2023-08-30T04:44:38;12.80;99.90
6948;DHT22;3513;47.664;9.162;2023-08-30T04:47:04;12.70;99.90
6948;DHT22;3513;47.664;9.162;2023-08-30T04:49:29;12.80;99.90
6948;DHT22;3513;47.664;9.162;2023-08-30T04:51:58;12.70;99.90
6948;DHT22;3513;47.664;9.162;2023-08-30T04:54:23;12.80;99.90
6948;DHT22;3513;47.664;9.162;2023-08-30T04:56:49;12.80;99.90
6948;DHT22;3513;47.664;9.162;2023-08-30T04:59:15;12.90;99.90
6948;DHT22;3513;47.664;9.162;2023-08-30T05:01:41;13.60;99.90
6948;DHT22;3513;47.664;9.162;2023-08-30T05:04:10;13.00;99.90
6948;DHT22;3513;47.664;9.162;2023-08-30T05:06:35;13.00;99.90
6948;DHT22;3513;47.664;9.162;2023-08-30T05:09:01;14.00;99.90
6948;DHT22;3513;47.664;9.162;2023-08-30T05:11:28;13.20;99.90
6948;DHT22;3513;47.664;9.162;2023-08-30T05:13:54;13.20;99.90
6948;DHT22;3513;47.664;9.162;2023-08-30T05:16:20;13.20;99.90
6948;DHT22;3513;47.664;9.162;2023-08-30T05:18:46;13.20;99.90
6948;DHT22;3513;47.664;9.162;2023-08-30T05:21:14;13.20;99.90
6948;DHT22;3513;47.664;9.162;2023-08-30T05:23:40;13.20;99.90
6948;DHT22;3513;47.664;9.162;2023-08-30T05:26:10;13.30;99.90
6948;DHT22;3513;47.664;9.162;2023-08-30T05:28:43;13.10;99.90
6948;DHT22;3513;47.664;9.162;2023-08-30T05:31:11;13.20;99.90
6948;DHT22;3513;47.664;9.162;2023-08-30T05:33:40;13.20;99.90
6948;DHT22;3513;47.664;9.162;2023-08-30T05:36:06;13.10;99.90
6948;DHT22;3513;47.664;9.162;2023-08-30T05:38:31;13.20;99.90
6948;DHT22;3513;47.664;9.162;2023-08-30T05:40:57;13.20;99.90
6948;DHT22;3513;47.664;9.162;2023-08-30T05:43:23;12.90;99.90
6948;DHT22;3513;47.664;9.162;2023-08-30T05:45:48;13.30;99.90
6948;DHT22;3513;47.664;9.162;2023-08-30T05:48:14;13.30;99.90
6948;DHT22;3513;47.664;9.162;2023-08-30T05:50:40;13.40;99.90
6948;DHT22;3513;47.664;9.162;2023-08-30T05:53:06;13.40;99.90
6948;DHT22;3513;47.664;9.162;2023-08-30T05:55:32;13.40;99.90
6948;DHT22;3513;47.664;9.162;2023-08-30T05:57:57;13.50;99.90
6948;DHT22;3513;47.664;9.162;2023-08-30T06:00:23;13.50;99.90
6948;DHT22;3513;47.664;9.162;2023-08-30T06:02:51;13.50;99.90
6948;DHT22;3513;47.664;9.162;2023-08-30T06:05:17;13.60;99.90
6948;DHT22;3513;47.664;9.162;2023-08-30T06:07:43;13.60;99.90
6948;DHT22;3513;47.664;9.162;2023-08-30T06:10:09;13.70;99.90
6948;DHT22;3513;47.664;9.162;2023-08-30T06:12:34;13.60;99.90
6948;DHT22;3513;47.664;9.162;2023-08-30T06:15:00;13.70;99.90
6948;DHT22;3513;47.664;9.162;2023-08-30T06:17:26;13.60;99.90
6948;DHT22;3513;47.664;9.162;2023-08-30T06:19:52;13.60;99.90
6948;DHT22;3513;47.664;9.162;2023-08-30T06:22:18;14.10;99.90
6948;DHT22;3513;47.664;9.162;2023-08-30T06:24:43;13.80;99.90
6948;DHT22;3513;47.664;9.162;2023-08-30T06:27:09;13.90;99.90
6948;DHT22;3513;47.664;9.162;2023-08-30T06:29:35;14.10;99.90
6948;DHT22;3513;47.664;9.162;2023-08-30T06:32:02;14.10;99.90
6948;DHT22;3513;47.664;9.162;2023-08-30T06:34:28;14.20;99.90
6948;DHT22;3513;47.664;9.162;2023-08-30T06:36:53;14.30;99.90
6948;DHT22;3513;47.664;9.162;2023-08-30T06:39:21;15.00;99.90
6948;DHT22;3513;47.664;9.162;2023-08-30T06:41:47;14.40;99.90
6948;DHT22;3513;47.664;9.162;2023-08-30T06:44:13;14.50;99.90
6948;DHT22;3513;47.664;9.162;2023-08-30T06:46:39;14.50;99.90
6948;DHT22;3513;47.664;9.162;2023-08-30T06:49:05;14.60;99.90
6948;DHT22;3513;47.664;9.162;2023-08-30T06:51:31;14.70;99.90
6948;DHT22;3513;47.664;9.162;2023-08-30T06:53:57;14.70;99.90
6948;DHT22;3513;47.664;9.162;2023-08-30T06:56:26;14.80;99.90
6948;DHT22;3513;47.664;9.162;2023-08-30T06:58:52;14.80;99.90
6948;DHT22;3513;47.664;9.162;2023-08-30T07:01:18;14.90;99.90
6948;DHT22;3513;47.664;9.162;2023-08-30T07:03:44;15.30;99.90
6948;DHT22;3513;47.664;9.162;2023-08-30T07:06:10;15.10;99.90
6948;DHT22;3513;47.664;9.162;2023-08-30T07:08:35;15.10;99.90
6948;DHT22;3513;47.664;9.162;2023-08-30T07:11:01;15.20;99.90
6948;DHT22;3513;47.664;9.162;2023-08-30T07:13:27;15.30;99.90
6948;DHT22;3513;47.664;9.162;2023-08-30T07:15:53;15.30;99.90
6948;DHT22;3513;47.664;9.162;2023-08-30T07:18:20;14.50;99.90
6948;DHT22;3513;47.664;9.162;2023-08-30T07:20:45;15.40;99.90
6948;DHT22;3513;47.664;9.162;2023-08-30T07:23:12;15.60;99.90
6948;DHT22;3513;47.664;9.162;2023-08-30T07:25:38;15.60;99.90
6948;DHT22;3513;47.664;9.162;2023-08-30T07:28:05;15.80;99.90
6948;DHT22;3513;47.664;9.162;2023-08-30T07:30:31;16.00;99.90
6948;DHT22;3513;47.664;9.162;2023-08-30T07:33:00;16.10;99.90
6948;DHT22;3513;47.664;9.162;2023-08-30T07:35:26;16.30;99.90
6948;DHT22;3513;47.664;9.162;2023-08-30T07:37:54;16.30;99.90
6948;DHT22;3513;47.664;9.162;2023-08-30T07:40:20;16.10;99.90
6948;DHT22;3513;47.664;9.162;2023-08-30T07:45:15;16.60;99.90
6948;DHT22;3513;47.664;9.162;2023-08-30T07:47:41;16.80;99.90
6948;DHT22;3513;47.664;9.162;2023-08-30T07:50:07;16.90;99.90
6948;DHT22;3513;47.664;9.162;2023-08-30T07:52:39;17.00;99.90
6948;DHT22;3513;47.664;9.162;2023-08-30T07:55:05;17.10;99.90
6948;DHT22;3513;47.664;9.162;2023-08-30T07:57:31;17.30;99.90
6948;DHT22;3513;47.664;9.162;2023-08-30T07:59:56;17.40;98.70
6948;DHT22;3513;47.664;9.162;2023-08-30T08:02:22;17.40;97.10
6948;DHT22;3513;47.664;9.162;2023-08-30T08:04:47;17.50;97.50
6948;DHT22;3513;47.664;9.162;2023-08-30T08:07:15;17.70;95.60
6948;DHT22;3513;47.664;9.162;2023-08-30T08:09:40;17.70;95.00
6948;DHT22;3513;47.664;9.162;2023-08-30T08:12:06;17.70;95.60
6948;DHT22;3513;47.664;9.162;2023-08-30T08:14:32;17.60;94.20
6948;DHT22;3513;47.664;9.162;2023-08-30T08:16:57;17.50;94.30
6948;DHT22;3513;47.664;9.162;2023-08-30T08:19:23;17.50;94.30
6948;DHT22;3513;47.664;9.162;2023-08-30T08:21:49;17.50;94.10
6948;DHT22;3513;47.664;9.162;2023-08-30T08:24:14;17.40;94.50
6948;DHT22;3513;47.664;9.162;2023-08-30T08:26:40;17.40;95.00
6948;DHT22;3513;47.664;9.162;2023-08-30T08:29:06;17.50;94.30
6948;DHT22;3513;47.664;9.162;2023-08-30T08:31:31;17.60;94.40
6948;DHT22;3513;47.664;9.162;2023-08-30T08:36:33;17.60;95.20
6948;DHT22;3513;47.664;9.162;2023-08-30T08:38:59;17.50;95.00
6948;DHT22;3513;47.664;9.162;2023-08-30T08:41:29;17.30;96.00
6948;DHT22;3513;47.664;9.162;2023-08-30T08:44:00;17.00;96.00
6948;DHT22;3513;47.664;9.162;2023-08-30T08:46:26;16.90;96.90
6948;DHT22;3513;47.664;9.162;2023-08-30T08:48:56;16.60;97.50
6948;DHT22;3513;47.664;9.162;2023-08-30T08:51:22;16.60;98.70
6948;DHT22;3513;47.664;9.162;2023-08-30T08:53:50;16.60;99.00
6948;DHT22;3513;47.664;9.162;2023-08-30T08:56:16;16.40;99.60
6948;DHT22;3513;47.664;9.162;2023-08-30T08:58:43;16.20;99.20
6948;DHT22;3513;47.664;9.162;2023-08-30T09:01:14;16.20;99.70
6948;DHT22;3513;47.664;9.162;2023-08-30T09:03:40;16.20;99.90
6948;DHT22;3513;47.664;9.162;2023-08-30T09:06:06;16.30;99.80
6948;DHT22;3513;47.664;9.162;2023-08-30T09:08:35;16.50;99.90
6948;DHT22;3513;47.664;9.162;2023-08-30T09:11:10;16.70;99.90
6948;DHT22;3513;47.664;9.162;2023-08-30T09:13:36;16.90;98.20
6948;DHT22;3513;47.664;9.162;2023-08-30T09:16:02;17.00;97.70
6948;DHT22;3513;47.664;9.162;2023-08-30T09:18:28;17.20;96.90
6948;DHT22;3513;47.664;9.162;2023-08-30T09:21:14;17.40;97.50
6948;DHT22;3513;47.664;9.162;2023-08-30T09:23:42;17.60;97.50
6948;DHT22;3513;47.664;9.162;2023-08-30T09:26:08;17.90;96.10
6948;DHT22;3513;47.664;9.162;2023-08-30T09:28:44;18.00;95.70
6948;DHT22;3513;47.664;9.162;2023-08-30T09:31:17;18.00;95.40
6948;DHT22;3513;47.664;9.162;2023-08-30T09:33:45;18.20;94.40
6948;DHT22;3513;47.664;9.162;2023-08-30T09:36:11;17.60;94.10
6948;DHT22;3513;47.664;9.162;2023-08-30T09:38:37;17.90;94.60
6948;DHT22;3513;47.664;9.162;2023-08-30T09:41:05;18.00;95.10
6948;DHT22;3513;47.664;9.162;2023-08-30T09:43:34;18.00;95.20
6948;DHT22;3513;47.664;9.162;2023-08-30T09:46:04;17.90;94.80
6948;DHT22;3513;47.664;9.162;2023-08-30T09:48:32;17.90;94.80
6948;DHT22;3513;47.664;9.162;2023-08-30T09:51:02;17.70;94.80
6948;DHT22;3513;47.664;9.162;2023-08-30T09:53:29;17.60;95.80
6948;DHT22;3513;47.664;9.162;2023-08-30T09:55:58;17.80;95.20
6948;DHT22;3513;47.664;9.162;2023-08-30T09:58:27;17.70;95.00
6948;DHT22;3513;47.664;9.162;2023-08-30T10:00:56;17.70;95.20
6948;DHT22;3513;47.664;9.162;2023-08-30T10:03:22;17.70;95.00
6948;DHT22;3513;47.664;9.162;2023-08-30T10:05:51;17.80;95.20
6948;DHT22;3513;47.664;9.162;2023-08-30T10:08:18;18.00;94.80
6948;DHT22;3513;47.664;9.162;2023-08-30T10:10:48;18.00;94.60
6948;DHT22;3513;47.664;9.162;2023-08-30T10:13:14;17.90;94.70
6948;DHT22;3513;47.664;9.162;2023-08-30T10:15:45;17.70;94.20
6948;DHT22;3513;47.664;9.162;2023-08-30T10:18:15;17.70;94.80
6948;DHT22;3513;47.664;9.162;2023-08-30T10:20:44;17.50;94.20
6948;DHT22;3513;47.664;9.162;2023-08-30T10:23:10;18.10;94.10
6948;DHT22;3513;47.664;9.162;2023-08-30T10:25:37;18.30;94.10
6948;DHT22;3513;47.664;9.162;2023-08-30T10:28:06;18.40;93.10
6948;DHT22;3513;47.664;9.162;2023-08-30T10:30:32;18.50;92.60
6948;DHT22;3513;47.664;9.162;2023-08-30T10:32:58;18.40;92.40
6948;DHT22;3513;47.664;9.162;2023-08-30T10:35:31;18.30;92.80
6948;DHT22;3513;47.664;9.162;2023-08-30T10:38:02;18.20;93.20
6948;DHT22;3513;47.664;9.162;2023-08-30T10:40:28;18.20;93.90
6948;DHT22;3513;47.664;9.162;2023-08-30T10:43:06;18.40;93.50
6948;DHT22;3513;47.664;9.162;2023-08-30T10:45:32;18.40;93.50
6948;DHT22;3513;47.664;9.162;2023-08-30T10:48:02;18.40;93.10
6948;DHT22;3513;47.664;9.162;2023-08-30T10:50:33;18.40;93.60
6948;DHT22;3513;47.664;9.162;2023-08-30T10:52:59;18.40;92.70
6948;DHT22;3513;47.664;9.162;2023-08-30T10:55:26;18.30;93.90
6948;DHT22;3513;47.664;9.162;2023-08-30T10:58:02;18.30;94.00
6948;DHT22;3513;47.664;9.162;2023-08-30T11:00:31;18.20;93.30
6948;DHT22;3513;47.664;9.162;2023-08-30T11:02:57;18.20;93.20
6948;DHT22;3513;47.664;9.162;2023-08-30T11:05:25;18.20;93.40
6948;DHT22;3513;47.664;9.162;2023-08-30T11:07:51;18.20;93.40
6948;DHT22;3513;47.664;9.162;2023-08-30T11:10:20;18.30;93.00
6948;DHT22;3513;47.664;9.162;2023-08-30T11:12:46;18.30;93.70
6948;DHT22;3513;47.664;9.162;2023-08-30T11:15:14;18.40;92.40
6948;DHT22;3513;47.664;9.162;2023-08-30T11:17:42;18.40;92.20
6948;DHT22;3513;47.664;9.162;2023-08-30T11:20:15;18.50;91.80
6948;DHT22;3513;47.664;9.162;2023-08-30T11:22:48;18.70;91.20
6948;DHT22;3513;47.664;9.162;2023-08-30T11:25:15;18.90;90.60
6948;DHT22;3513;47.664;9.162;2023-08-30T11:27:41;19.00;89.80
6948;DHT22;3513;47.664;9.162;2023-08-30T11:30:08;18.90;89.50
6948;DHT22;3513;47.664;9.162;2023-08-30T11:32:43;18.80;89.10
6948;DHT22;3513;47.664;9.162;2023-08-30T11:35:08;19.00;89.40
6948;DHT22;3513;47.664;9.162;2023-08-30T11:37:34;19.10;87.70
6948;DHT22;3513;47.664;9.162;2023-08-30T11:40:02;19.30;89.70
6948;DHT22;3513;47.664;9.162;2023-08-30T11:42:30;19.60;86.20
6948;DHT22;3513;47.664;9.162;2023-08-30T11:44:55;19.60;85.50
6948;DHT22;3513;47.664;9.162;2023-08-30T11:47:24;19.70;85.60
6948;DHT22;3513;47.664;9.162;2023-08-30T11:49:54;19.70;84.40
6948;DHT22;3513;47.664;9.162;2023-08-30T11:52:20;19.80;85.90
6948;DHT22;3513;47.664;9.162;2023-08-30T11:54:49;19.80;84.60
6948;DHT22;3513;47.664;9.162;2023-08-30T11:57:16;19.70;85.30
6948;DHT22;3513;47.664;9.162;2023-08-30T11:59:42;19.80;83.50
6948;DHT22;3513;47.664;9.162;2023-08-30T12:02:07;19.70;83.60
6948;DHT22;3513;47.664;9.162;2023-08-30T12:05:00;19.80;83.90
6948;DHT22;3513;47.664;9.162;2023-08-30T12:07:26;20.00;81.60
6948;DHT22;3513;47.664;9.162;2023-08-30T12:09:52;20.00;80.90
6948;DHT22;3513;47.664;9.162;2023-08-30T12:12:17;20.00;80.90
6948;DHT22;3513;47.664;9.162;2023-08-30T12:14:43;20.00;81.10
6948;DHT22;3513;47.664;9.162;2023-08-30T12:17:09;20.10;81.90
6948;DHT22;3513;47.664;9.162;2023-08-30T12:19:37;20.30;80.20
6948;DHT22;3513;47.664;9.162;2023-08-30T12:22:06;20.50;81.00
6948;DHT22;3513;47.664;9.162;2023-08-30T12:24:46;20.70;78.90
6948;DHT22;3513;47.664;9.162;2023-08-30T12:27:12;20.70;79.30
6948;DHT22;3513;47.664;9.162;2023-08-30T12:29:38;21.00;79.40
6948;DHT22;3513;47.664;9.162;2023-08-30T12:32:03;21.00;76.90
6948;DHT22;3513;47.664;9.162;2023-08-30T12:34:29;21.20;78.20
6948;DHT22;3513;47.664;9.162;2023-08-30T12:36:55;21.40;75.10
6948;DHT22;3513;47.664;9.162;2023-08-30T12:39:21;21.60;75.10
6948;DHT22;3513;47.664;9.162;2023-08-30T12:41:46;21.70;72.70
6948;DHT22;3513;47.664;9.162;2023-08-30T12:44:12;21.80;75.10
6948;DHT22;3513;47.664;9.162;2023-08-30T12:46:38;21.90;73.50
6948;DHT22;3513;47.664;9.162;2023-08-30T12:49:03;22.10;73.00
6948;DHT22;3513;47.664;9.162;2023-08-30T12:51:29;22.30;73.10
6948;DHT22;3513;47.664;9.162;2023-08-30T12:53:55;22.20;69.80
6948;DHT22;3513;47.664;9.162;2023-08-30T12:56:21;22.00;70.70
6948;DHT22;3513;47.664;9.162;2023-08-30T12:58:47;21.90;69.90
6948;DHT22;3513;47.664;9.162;2023-08-30T13:01:12;22.00;69.00
6948;DHT22;3513;47.664;9.162;2023-08-30T13:03:38;22.20;68.20
6948;DHT22;3513;47.664;9.162;2023-08-30T13:06:03;22.40;68.40
6948;DHT22;3513;47.664;9.162;2023-08-30T13:08:29;22.30;68.10
6948;DHT22;3513;47.664;9.162;2023-08-30T13:10:55;22.20;68.70
6948;DHT22;3513;47.664;9.162;2023-08-30T13:13:20;22.10;69.60
6948;DHT22;3513;47.664;9.162;2023-08-30T13:15:47;22.30;71.20
6948;DHT22;3513;47.664;9.162;2023-08-30T13:18:14;22.30;66.60
6948;DHT22;3513;47.664;9.162;2023-08-30T13:20:41;22.50;70.10
6948;DHT22;3513;47.664;9.162;2023-08-30T13:23:07;22.90;69.40
6948;DHT22;3513;47.664;9.162;2023-08-30T13:25:33;23.40;64.10
6948;DHT22;3513;47.664;9.162;2023-08-30T13:27:58;23.60;63.60
6948;DHT22;3513;47.664;9.162;2023-08-30T13:30:24;23.50;61.70
6948;DHT22;3513;47.664;9.162;2023-08-30T13:32:49;23.30;62.50
6948;DHT22;3513;47.664;9.162;2023-08-30T13:35:15;23.10;63.30
6948;DHT22;3513;47.664;9.162;2023-08-30T13:37:40;23.20;67.10
6948;DHT22;3513;47.664;9.162;2023-08-30T13:40:06;23.60;63.50
6948;DHT22;3513;47.664;9.162;2023-08-30T13:42:33;23.50;64.50
6948;DHT22;3513;47.664;9.162;2023-08-30T13:44:58;23.00;63.00
6948;DHT22;3513;47.664;9.162;2023-08-30T13:47:24;22.70;63.70
6948;DHT22;3513;47.664;9.162;2023-08-30T13:49:49;22.50;62.10
6948;DHT22;3513;47.664;9.162;2023-08-30T13:52:15;22.30;62.90
6948;DHT22;3513;47.664;9.162;2023-08-30T13:54:41;22.50;65.20
6948;DHT22;3513;47.664;9.162;2023-08-30T13:57:07;22.70;64.70
6948;DHT22;3513;47.664;9.162;2023-08-30T13:59:32;23.50;64.80
6948;DHT22;3513;47.664;9.162;2023-08-30T14:01:58;24.40;62.90
6948;DHT22;3513;47.664;9.162;2023-08-30T14:04:24;24.70;60.70
6948;DHT22;3513;47.664;9.162;2023-08-30T14:06:51;24.80;59.40
6948;DHT22;3513;47.664;9.162;2023-08-30T14:09:16;24.80;61.30
6948;DHT22;3513;47.664;9.162;2023-08-30T14:11:42;24.90;59.00
6948;DHT22;3513;47.664;9.162;2023-08-30T14:14:07;24.90;59.60
6948;DHT22;3513;47.664;9.162;2023-08-30T14:16:33;24.80;58.60
6948;DHT22;3513;47.664;9.162;2023-08-30T14:18:59;25.10;58.80
6948;DHT22;3513;47.664;9.162;2023-08-30T14:21:26;25.10;57.80
6948;DHT22;3513;47.664;9.162;2023-08-30T14:23:52;24.80;57.10
6948;DHT22;3513;47.664;9.162;2023-08-30T14:26:18;24.50;58.20
6948;DHT22;3513;47.664;9.162;2023-08-30T14:28:44;24.40;59.50
6948;DHT22;3513;47.664;9.162;2023-08-30T14:31:10;24.70;61.20
6948;DHT22;3513;47.664;9.162;2023-08-30T14:33:36;25.50;58.10
6948;DHT22;3513;47.664;9.162;2023-08-30T14:36:02;26.20;55.00
6948;DHT22;3513;47.664;9.162;2023-08-30T14:38:29;26.30;53.90
6948;DHT22;3513;47.664;9.162;2023-08-30T14:40:59;26.10;52.20
6948;DHT22;3513;47.664;9.162;2023-08-30T14:43:25;25.70;53.30
6948;DHT22;3513;47.664;9.162;2023-08-30T14:45:51;25.90;53.80
6948;DHT22;3513;47.664;9.162;2023-08-30T14:48:23;26.60;51.50
6948;DHT22;3513;47.664;9.162;2023-08-30T14:50:50;27.00;49.50
6948;DHT22;3513;47.664;9.162;2023-08-30T14:53:16;26.20;48.20
6948;DHT22;3513;47.664;9.162;2023-08-30T14:55:44;25.70;50.20
6948;DHT22;3513;47.664;9.162;2023-08-30T14:58:10;25.80;52.30
6948;DHT22;3513;47.664;9.162;2023-08-30T15:00:35;26.10;52.70
6948;DHT22;3513;47.664;9.162;2023-08-30T15:03:01;26.90;53.20
6948;DHT22;3513;47.664;9.162;2023-08-30T15:05:27;27.50;49.00
6948;DHT22;3513;47.664;9.162;2023-08-30T15:07:52;26.90;48.10
6948;DHT22;3513;47.664;9.162;2023-08-30T15:10:18;26.20;50.00
6948;DHT22;3513;47.664;9.162;2023-08-30T15:12:43;26.00;48.30
6948;DHT22;3513;47.664;9.162;2023-08-30T15:15:09;26.00;49.20
6948;DHT22;3513;47.664;9.162;2023-08-30T15:17:35;25.80;48.80
6948;DHT22;3513;47.664;9.162;2023-08-30T15:20:00;25.40;49.90
6948;DHT22;3513;47.664;9.162;2023-08-30T15:22:26;25.00;51.40
6948;DHT22;3513;47.664;9.162;2023-08-30T15:24:51;24.60;52.40
6948;DHT22;3513;47.664;9.162;2023-08-30T15:27:17;24.60;54.20
6948;DHT22;3513;47.664;9.162;2023-08-30T15:29:42;25.20;53.60
6948;DHT22;3513;47.664;9.162;2023-08-30T15:32:08;26.00;51.90
6948;DHT22;3513;47.664;9.162;2023-08-30T15:34:34;26.60;49.40
6948;DHT22;3513;47.664;9.162;2023-08-30T15:37:00;26.50;48.70
6948;DHT22;3513;47.664;9.162;2023-08-30T15:39:25;26.10;49.30
6948;DHT22;3513;47.664;9.162;2023-08-30T15:41:51;25.40;50.70
6948;DHT22;3513;47.664;9.162;2023-08-30T15:44:17;24.60;51.70
6948;DHT22;3513;47.664;9.162;2023-08-30T15:46:43;23.90;53.60
6948;DHT22;3513;47.664;9.162;2023-08-30T15:49:09;23.40;55.30
6948;DHT22;3513;47.664;9.162;2023-08-30T15:51:34;22.90;57.40
6948;DHT22;3513;47.664;9.162;2023-08-30T15:54:00;22.60;58.80
6948;DHT22;3513;47.664;9.162;2023-08-30T15:56:26;22.30;60.30
6948;DHT22;3513;47.664;9.162;2023-08-30T15:58:52;22.10;60.60
6948;DHT22;3513;47.664;9.162;2023-08-30T16:01:17;21.80;61.20
6948;DHT22;3513;47.664;9.162;2023-08-30T16:03:45;21.50;61.50
6948;DHT22;3513;47.664;9.162;2023-08-30T16:06:10;21.40;62.50